sensor_id;sensor_type;location;lat;lon;timestamp;P1;durP1;ratioP1;P2;durP2;ratioP2
6955;SDS011;50345;51.136;16.886;2023-02-15T00:01:16;29.87;;;19.00;;
6955;SDS011;50345;51.136;16.886;2023-02-15T00:03:42;27.03;;;20.03;;
6955;SDS011;50345;51.136;16.886;2023-02-15T00:06:07;29.53;;;20.00;;
6955;SDS011;50345;51.136;16.886;2023-02-15T00:08:33;26.07;;;18.07;;
6955;SDS011;50345;51.136;16.886;2023-02-15T00:11:08;30.50;;;18.90;;
6955;SDS011;50345;51.136;16.886;2023-02-15T00:13:35;28.50;;;17.70;;
6955;SDS011;50345;51.136;16.886;2023-02-15T00:16:03;31.98;;;20.33;;
6955;SDS011;50345;51.136;16.886;2023-02-15T00:18:33;31.95;;;19.75;;
6955;SDS011;50345;51.136;16.886;2023-02-15T00:21:02;28.27;;;19.47;;
6955;SDS011;50345;51.136;16.886;2023-02-15T00:23:28;30.42;;;18.80;;
6955;SDS011;50345;51.136;16.886;2023-02-15T00:26:07;29.07;;;20.10;;
6955;SDS011;50345;51.136;16.886;2023-02-15T00:28:34;32.83;;;19.67;;
6955;SDS011;50345;51.136;16.886;2023-02-15T00:31:06;33.27;;;21.70;;
6955;SDS011;50345;51.136;16.886;2023-02-15T00:33:33;32.10;;;19.75;;
6955;SDS011;50345;51.136;16.886;2023-02-15T00:35:59;31.70;;;19.77;;
6955;SDS011;50345;51.136;16.886;2023-02-15T00:38:28;28.05;;;18.38;;
6955;SDS011;50345;51.136;16.886;2023-02-15T00:40:55;33.97;;;21.02;;
6955;SDS011;50345;51.136;16.886;2023-02-15T00:43:22;31.42;;;21.02;;
6955;SDS011;50345;51.136;16.886;2023-02-15T00:45:48;34.80;;;19.40;;
6955;SDS011;50345;51.136;16.886;2023-02-15T00:48:14;33.77;;;19.43;;
6955;SDS011;50345;51.136;16.886;2023-02-15T00:50:40;26.47;;;18.50;;
6955;SDS011;50345;51.136;16.886;2023-02-15T00:53:05;32.23;;;20.97;;
6955;SDS011;50345;51.136;16.886;2023-02-15T00:55:31;31.50;;;19.00;;
6955;SDS011;50345;51.136;16.886;2023-02-15T00:57:56;26.60;;;18.17;;
6955;SDS011;50345;51.136;16.886;2023-02-15T01:00:22;27.80;;;20.37;;
6955;SDS011;50345;51.136;16.886;2023-02-15T01:02:47;31.40;;;21.17;;
6955;SDS011;50345;51.136;16.886;2023-02-15T01:05:13;34.43;;;21.20;;
6955;SDS011;50345;51.136;16.886;2023-02-15T01:07:39;31.93;;;20.90;;
6955;SDS011;50345;51.136;16.886;2023-02-15T01:10:05;31.60;;;20.93;;
6955;SDS011;50345;51.136;16.886;2023-02-15T01:12:32;31.35;;;21.15;;
6955;SDS011;50345;51.136;16.886;2023-02-15T01:14:58;35.95;;;22.98;;
6955;SDS011;50345;51.136;16.886;2023-02-15T01:17:24;34.50;;;23.50;;
6955;SDS011;50345;51.136;16.886;2023-02-15T01:19:49;40.30;;;27.23;;
6955;SDS011;50345;51.136;16.886;2023-02-15T01:22:16;42.20;;;27.20;;
6955;SDS011;50345;51.136;16.886;2023-02-15T01:24:42;45.88;;;27.00;;
6955;SDS011;50345;51.136;16.886;2023-02-15T01:27:08;45.88;;;29.27;;
6955;SDS011;50345;51.136;16.886;2023-02-15T01:29:34;36.03;;;24.47;;
6955;SDS011;50345;51.136;16.886;2023-02-15T01:32:00;33.80;;;23.67;;
6955;SDS011;50345;51.136;16.886;2023-02-15T01:34:25;35.50;;;22.10;;
6955;SDS011;50345;51.136;16.886;2023-02-15T01:36:51;40.40;;;23.70;;
6955;SDS011;50345;51.136;16.886;2023-02-15T01:39:16;34.70;;;22.80;;
6955;SDS011;50345;51.136;16.886;2023-02-15T01:41:42;41.10;;;24.17;;
6955;SDS011;50345;51.136;16.886;2023-02-15T01:47:08;38.75;;;23.77;;
6955;SDS011;50345;51.136;16.886;2023-02-15T01:49:36;38.15;;;25.70;;
6955;SDS011;50345;51.136;16.886;2023-02-15T01:52:06;48.92;;;27.65;;
6955;SDS011;50345;51.136;16.886;2023-02-15T01:54:34;44.50;;;25.38;;
6955;SDS011;50345;51.136;16.886;2023-02-15T01:57:03;53.15;;;26.35;;
6955;SDS011;50345;51.136;16.886;2023-02-15T01:59:33;52.88;;;28.02;;
6955;SDS011;50345;51.136;16.886;2023-02-15T02:02:02;46.45;;;28.23;;
6955;SDS011;50345;51.136;16.886;2023-02-15T02:04:40;40.38;;;26.08;;
6955;SDS011;50345;51.136;16.886;2023-02-15T02:07:10;54.55;;;28.60;;
6955;SDS011;50345;51.136;16.886;2023-02-15T02:09:38;47.30;;;28.85;;
6955;SDS011;50345;51.136;16.886;2023-02-15T02:12:04;45.23;;;26.50;;
6955;SDS011;50345;51.136;16.886;2023-02-15T02:14:30;50.28;;;27.80;;
6955;SDS011;50345;51.136;16.886;2023-02-15T02:16:58;50.33;;;28.40;;
6955;SDS011;50345;51.136;16.886;2023-02-15T02:19:58;39.55;;;25.85;;
6955;SDS011;50345;51.136;16.886;2023-02-15T02:25:43;34.95;;;22.08;;
6955;SDS011;50345;51.136;16.886;2023-02-15T02:34:50;38.80;;;21.58;;
6955;SDS011;50345;51.136;16.886;2023-02-15T02:37:46;34.72;;;21.40;;
6955;SDS011;50345;51.136;16.886;2023-02-15T02:43:05;38.25;;;22.33;;
6955;SDS011;50345;51.136;16.886;2023-02-15T02:45:45;31.85;;;20.65;;
6955;SDS011;50345;51.136;16.886;2023-02-15T02:48:21;37.50;;;22.20;;
6955;SDS011;50345;51.136;16.886;2023-02-15T02:50:50;34.30;;;22.00;;
6955;SDS011;50345;51.136;16.886;2023-02-15T02:53:16;27.63;;;19.80;;
6955;SDS011;50345;51.136;16.886;2023-02-15T02:55:51;40.00;;;21.80;;
6955;SDS011;50345;51.136;16.886;2023-02-15T03:01:30;31.08;;;22.00;;
6955;SDS011;50345;51.136;16.886;2023-02-15T03:04:05;38.10;;;21.27;;
6955;SDS011;50345;51.136;16.886;2023-02-15T03:06:46;34.80;;;21.33;;
6955;SDS011;50345;51.136;16.886;2023-02-15T03:09:29;35.20;;;20.58;;
6955;SDS011;50345;51.136;16.886;2023-02-15T03:12:14;35.80;;;20.50;;
6955;SDS011;50345;51.136;16.886;2023-02-15T03:14:44;34.15;;;21.77;;
6955;SDS011;50345;51.136;16.886;2023-02-15T03:17:16;31.30;;;21.48;;
6955;SDS011;50345;51.136;16.886;2023-02-15T03:19:45;33.70;;;20.75;;
6955;SDS011;50345;51.136;16.886;2023-02-15T03:22:17;34.70;;;22.83;;
6955;SDS011;50345;51.136;16.886;2023-02-15T03:27:19;37.55;;;22.00;;
6955;SDS011;50345;51.136;16.886;2023-02-15T03:29:50;29.73;;;20.48;;
6955;SDS011;50345;51.136;16.886;2023-02-15T03:32:20;34.78;;;21.65;;
6955;SDS011;50345;51.136;16.886;2023-02-15T03:34:46;35.40;;;22.25;;
6955;SDS011;50345;51.136;16.886;2023-02-15T03:37:29;39.60;;;23.47;;
6955;SDS011;50345;51.136;16.886;2023-02-15T03:43:14;35.72;;;20.20;;
6955;SDS011;50345;51.136;16.886;2023-02-15T03:45:46;36.53;;;22.83;;
6955;SDS011;50345;51.136;16.886;2023-02-15T03:48:26;40.28;;;24.08;;
6955;SDS011;50345;51.136;16.886;2023-02-15T03:50:55;37.20;;;22.15;;
6955;SDS011;50345;51.136;16.886;2023-02-15T03:53:43;37.75;;;20.98;;
6955;SDS011;50345;51.136;16.886;2023-02-15T03:56:11;35.15;;;21.90;;
6955;SDS011;50345;51.136;16.886;2023-02-15T03:58:37;36.40;;;23.20;;
6955;SDS011;50345;51.136;16.886;2023-02-15T04:01:33;36.35;;;22.20;;
6955;SDS011;50345;51.136;16.886;2023-02-15T04:04:30;35.92;;;20.17;;
6955;SDS011;50345;51.136;16.886;2023-02-15T04:06:57;33.92;;;21.55;;
6955;SDS011;50345;51.136;16.886;2023-02-15T04:09:23;31.63;;;20.03;;
6955;SDS011;50345;51.136;16.886;2023-02-15T04:12:07;33.28;;;20.63;;
6955;SDS011;50345;51.136;16.886;2023-02-15T04:14:33;35.17;;;22.80;;
6955;SDS011;50345;51.136;16.886;2023-02-15T04:17:17;37.45;;;22.45;;
6955;SDS011;50345;51.136;16.886;2023-02-15T04:19:43;42.40;;;24.90;;
6955;SDS011;50345;51.136;16.886;2023-02-15T04:22:27;34.22;;;23.52;;
6955;SDS011;50345;51.136;16.886;2023-02-15T04:25:11;43.85;;;24.10;;
6955;SDS011;50345;51.136;16.886;2023-02-15T04:27:43;44.72;;;25.88;;
6955;SDS011;50345;51.136;16.886;2023-02-15T04:30:11;42.50;;;27.15;;
6955;SDS011;50345;51.136;16.886;2023-02-15T04:32:38;54.95;;;32.53;;
6955;SDS011;50345;51.136;16.886;2023-02-15T04:35:04;55.40;;;30.90;;
6955;SDS011;50345;51.136;16.886;2023-02-15T04:37:31;47.17;;;27.98;;
6955;SDS011;50345;51.136;16.886;2023-02-15T04:39:57;41.75;;;25.98;;
6955;SDS011;50345;51.136;16.886;2023-02-15T04:42:23;38.00;;;23.27;;
6955;SDS011;50345;51.136;16.886;2023-02-15T04:44:52;35.35;;;24.55;;
6955;SDS011;50345;51.136;16.886;2023-02-15T04:47:18;41.85;;;26.35;;
6955;SDS011;50345;51.136;16.886;2023-02-15T04:49:44;40.27;;;27.97;;
6955;SDS011;50345;51.136;16.886;2023-02-15T04:52:09;37.17;;;24.73;;
6955;SDS011;50345;51.136;16.886;2023-02-15T04:54:35;44.57;;;26.63;;
6955;SDS011;50345;51.136;16.886;2023-02-15T04:57:00;48.70;;;28.80;;
6955;SDS011;50345;51.136;16.886;2023-02-15T04:59:26;45.45;;;30.98;;
6955;SDS011;50345;51.136;16.886;2023-02-15T05:01:52;48.50;;;30.53;;
6955;SDS011;50345;51.136;16.886;2023-02-15T05:04:18;45.70;;;29.90;;
6955;SDS011;50345;51.136;16.886;2023-02-15T05:06:43;45.50;;;29.60;;
6955;SDS011;50345;51.136;16.886;2023-02-15T05:09:10;47.13;;;31.70;;
6955;SDS011;50345;51.136;16.886;2023-02-15T05:11:36;44.47;;;28.67;;
6955;SDS011;50345;51.136;16.886;2023-02-15T05:14:01;42.57;;;28.57;;
6955;SDS011;50345;51.136;16.886;2023-02-15T05:16:27;41.90;;;26.73;;
6955;SDS011;50345;51.136;16.886;2023-02-15T05:18:53;42.00;;;26.27;;
6955;SDS011;50345;51.136;16.886;2023-02-15T05:21:18;37.60;;;23.87;;
6955;SDS011;50345;51.136;16.886;2023-02-15T05:23:44;43.60;;;25.57;;
6955;SDS011;50345;51.136;16.886;2023-02-15T05:26:10;39.93;;;26.80;;
6955;SDS011;50345;51.136;16.886;2023-02-15T05:28:56;44.95;;;26.95;;
6955;SDS011;50345;51.136;16.886;2023-02-15T05:31:22;39.60;;;26.27;;
6955;SDS011;50345;51.136;16.886;2023-02-15T05:33:47;42.57;;;27.50;;
6955;SDS011;50345;51.136;16.886;2023-02-15T05:36:13;39.37;;;24.57;;
6955;SDS011;50345;51.136;16.886;2023-02-15T05:38:39;42.63;;;25.70;;
6955;SDS011;50345;51.136;16.886;2023-02-15T05:41:05;44.97;;;28.70;;
6955;SDS011;50345;51.136;16.886;2023-02-15T05:43:32;38.70;;;26.05;;
6955;SDS011;50345;51.136;16.886;2023-02-15T05:45:58;41.00;;;26.48;;
6955;SDS011;50345;51.136;16.886;2023-02-15T05:48:24;39.40;;;25.70;;
6955;SDS011;50345;51.136;16.886;2023-02-15T05:50:57;41.22;;;25.83;;
6955;SDS011;50345;51.136;16.886;2023-02-15T05:53:25;41.22;;;26.92;;
6955;SDS011;50345;51.136;16.886;2023-02-15T05:55:51;35.65;;;24.30;;
6955;SDS011;50345;51.136;16.886;2023-02-15T05:58:16;38.03;;;25.60;;
6955;SDS011;50345;51.136;16.886;2023-02-15T06:00:42;46.07;;;26.47;;
6955;SDS011;50345;51.136;16.886;2023-02-15T06:03:08;43.77;;;27.10;;
6955;SDS011;50345;51.136;16.886;2023-02-15T06:05:33;42.20;;;24.50;;
6955;SDS011;50345;51.136;16.886;2023-02-15T06:07:59;41.03;;;25.27;;
6955;SDS011;50345;51.136;16.886;2023-02-15T06:10:24;45.00;;;27.47;;
6955;SDS011;50345;51.136;16.886;2023-02-15T06:12:50;39.83;;;26.00;;
6955;SDS011;50345;51.136;16.886;2023-02-15T06:15:16;45.93;;;27.20;;
6955;SDS011;50345;51.136;16.886;2023-02-15T06:17:41;38.07;;;25.70;;
6955;SDS011;50345;51.136;16.886;2023-02-15T06:20:07;45.67;;;28.23;;
6955;SDS011;50345;51.136;16.886;2023-02-15T06:22:33;39.90;;;27.23;;
6955;SDS011;50345;51.136;16.886;2023-02-15T06:24:59;52.60;;;28.27;;
6955;SDS011;50345;51.136;16.886;2023-02-15T06:27:24;49.80;;;29.73;;
6955;SDS011;50345;51.136;16.886;2023-02-15T06:29:50;48.23;;;31.07;;
6955;SDS011;50345;51.136;16.886;2023-02-15T06:32:15;48.97;;;28.97;;
6955;SDS011;50345;51.136;16.886;2023-02-15T06:34:41;42.17;;;28.43;;
6955;SDS011;50345;51.136;16.886;2023-02-15T06:37:06;39.83;;;26.60;;
6955;SDS011;50345;51.136;16.886;2023-02-15T06:39:33;45.58;;;26.88;;
6955;SDS011;50345;51.136;16.886;2023-02-15T06:41:59;39.20;;;24.30;;
6955;SDS011;50345;51.136;16.886;2023-02-15T06:44:25;43.27;;;27.00;;
6955;SDS011;50345;51.136;16.886;2023-02-15T06:46:50;38.03;;;24.80;;
6955;SDS011;50345;51.136;16.886;2023-02-15T06:49:16;38.63;;;24.67;;
6955;SDS011;50345;51.136;16.886;2023-02-15T06:51:41;39.40;;;26.00;;
6955;SDS011;50345;51.136;16.886;2023-02-15T06:54:07;39.20;;;25.37;;
6955;SDS011;50345;51.136;16.886;2023-02-15T06:56:33;45.63;;;26.50;;
6955;SDS011;50345;51.136;16.886;2023-02-15T06:58:58;41.37;;;24.93;;
6955;SDS011;50345;51.136;16.886;2023-02-15T07:01:24;40.47;;;25.70;;
6955;SDS011;50345;51.136;16.886;2023-02-15T07:03:49;43.60;;;26.43;;
6955;SDS011;50345;51.136;16.886;2023-02-15T07:06:15;36.70;;;25.50;;
6955;SDS011;50345;51.136;16.886;2023-02-15T07:08:40;47.13;;;27.93;;
6955;SDS011;50345;51.136;16.886;2023-02-15T07:11:06;47.73;;;26.37;;
6955;SDS011;50345;51.136;16.886;2023-02-15T07:13:51;39.25;;;27.45;;
6955;SDS011;50345;51.136;16.886;2023-02-15T07:16:17;41.50;;;27.55;;
6955;SDS011;50345;51.136;16.886;2023-02-15T07:18:43;36.90;;;25.35;;
6955;SDS011;50345;51.136;16.886;2023-02-15T07:21:09;41.57;;;27.03;;
6955;SDS011;50345;51.136;16.886;2023-02-15T07:23:38;41.13;;;26.77;;
6955;SDS011;50345;51.136;16.886;2023-02-15T07:26:05;43.00;;;25.90;;
6955;SDS011;50345;51.136;16.886;2023-02-15T07:28:33;38.25;;;26.30;;
6955;SDS011;50345;51.136;16.886;2023-02-15T07:31:02;36.92;;;25.05;;
6955;SDS011;50345;51.136;16.886;2023-02-15T07:33:30;33.53;;;24.52;;
6955;SDS011;50345;51.136;16.886;2023-02-15T07:35:57;51.20;;;30.63;;
6955;SDS011;50345;51.136;16.886;2023-02-15T07:38:26;50.25;;;27.95;;
6955;SDS011;50345;51.136;16.886;2023-02-15T07:40:57;43.55;;;27.00;;
6955;SDS011;50345;51.136;16.886;2023-02-15T07:43:24;40.40;;;26.02;;
6955;SDS011;50345;51.136;16.886;2023-02-15T07:45:49;42.03;;;26.63;;
6955;SDS011;50345;51.136;16.886;2023-02-15T07:48:15;41.00;;;29.40;;
6955;SDS011;50345;51.136;16.886;2023-02-15T07:50:40;41.40;;;28.57;;
6955;SDS011;50345;51.136;16.886;2023-02-15T07:53:06;44.80;;;28.60;;
6955;SDS011;50345;51.136;16.886;2023-02-15T07:55:31;35.63;;;26.03;;
6955;SDS011;50345;51.136;16.886;2023-02-15T07:57:57;40.57;;;28.30;;
6955;SDS011;50345;51.136;16.886;2023-02-15T08:00:22;39.33;;;26.03;;
6955;SDS011;50345;51.136;16.886;2023-02-15T08:02:58;37.90;;;25.60;;
6955;SDS011;50345;51.136;16.886;2023-02-15T08:05:39;39.45;;;25.38;;
6955;SDS011;50345;51.136;16.886;2023-02-15T08:08:07;43.15;;;25.80;;
6955;SDS011;50345;51.136;16.886;2023-02-15T08:10:33;38.20;;;25.63;;
6955;SDS011;50345;51.136;16.886;2023-02-15T08:13:19;33.85;;;24.45;;
6955;SDS011;50345;51.136;16.886;2023-02-15T08:15:48;37.43;;;25.27;;
6955;SDS011;50345;51.136;16.886;2023-02-15T08:18:15;34.92;;;24.83;;
6955;SDS011;50345;51.136;16.886;2023-02-15T08:20:40;33.10;;;22.83;;
6955;SDS011;50345;51.136;16.886;2023-02-15T08:23:06;33.83;;;24.23;;
6955;SDS011;50345;51.136;16.886;2023-02-15T08:25:31;34.90;;;23.50;;
6955;SDS011;50345;51.136;16.886;2023-02-15T08:27:57;35.30;;;25.10;;
6955;SDS011;50345;51.136;16.886;2023-02-15T08:30:23;34.40;;;24.40;;
6955;SDS011;50345;51.136;16.886;2023-02-15T08:32:48;34.57;;;23.57;;
6955;SDS011;50345;51.136;16.886;2023-02-15T08:35:14;36.37;;;24.80;;
6955;SDS011;50345;51.136;16.886;2023-02-15T08:37:39;37.57;;;26.43;;
6955;SDS011;50345;51.136;16.886;2023-02-15T08:40:05;33.83;;;23.73;;
6955;SDS011;50345;51.136;16.886;2023-02-15T08:42:34;35.28;;;22.67;;
6955;SDS011;50345;51.136;16.886;2023-02-15T08:45:00;36.03;;;24.65;;
6955;SDS011;50345;51.136;16.886;2023-02-15T08:47:25;33.60;;;24.87;;
6955;SDS011;50345;51.136;16.886;2023-02-15T08:49:51;40.63;;;27.03;;
6955;SDS011;50345;51.136;16.886;2023-02-15T08:52:17;33.17;;;22.70;;
6955;SDS011;50345;51.136;16.886;2023-02-15T08:54:42;37.60;;;26.27;;
6955;SDS011;50345;51.136;16.886;2023-02-15T08:57:08;36.97;;;24.60;;
6955;SDS011;50345;51.136;16.886;2023-02-15T08:59:35;31.95;;;24.45;;
6955;SDS011;50345;51.136;16.886;2023-02-15T09:02:00;34.77;;;24.60;;
6955;SDS011;50345;51.136;16.886;2023-02-15T09:04:27;33.60;;;25.30;;
6955;SDS011;50345;51.136;16.886;2023-02-15T09:06:53;33.57;;;23.70;;
6955;SDS011;50345;51.136;16.886;2023-02-15T09:09:20;32.95;;;24.98;;
6955;SDS011;50345;51.136;16.886;2023-02-15T09:11:47;32.45;;;24.05;;
6955;SDS011;50345;51.136;16.886;2023-02-15T09:14:15;30.83;;;25.95;;
6955;SDS011;50345;51.136;16.886;2023-02-15T09:16:49;37.63;;;25.05;;
6955;SDS011;50345;51.136;16.886;2023-02-15T09:19:17;33.78;;;25.33;;
6955;SDS011;50345;51.136;16.886;2023-02-15T09:21:44;30.27;;;23.45;;
6955;SDS011;50345;51.136;16.886;2023-02-15T09:24:11;31.83;;;24.50;;
6955;SDS011;50345;51.136;16.886;2023-02-15T09:26:39;29.77;;;23.45;;
6955;SDS011;50345;51.136;16.886;2023-02-15T09:29:07;33.50;;;24.02;;
6955;SDS011;50345;51.136;16.886;2023-02-15T09:31:37;32.97;;;24.42;;
6955;SDS011;50345;51.136;16.886;2023-02-15T09:34:09;31.98;;;26.27;;
6955;SDS011;50345;51.136;16.886;2023-02-15T09:36:36;30.08;;;24.10;;
6955;SDS011;50345;51.136;16.886;2023-02-15T09:39:10;31.38;;;25.40;;
6955;SDS011;50345;51.136;16.886;2023-02-15T09:44:27;29.48;;;26.20;;
6955;SDS011;50345;51.136;16.886;2023-02-15T10:01:32;29.55;;;26.15;;
6955;SDS011;50345;51.136;16.886;2023-02-15T10:07:00;29.10;;;26.05;;
6955;SDS011;50345;51.136;16.886;2023-02-15T10:18:15;27.20;;;24.13;;
6955;SDS011;50345;51.136;16.886;2023-02-15T10:23:58;24.10;;;21.50;;
6955;SDS011;50345;51.136;16.886;2023-02-15T10:26:44;26.02;;;23.23;;
6955;SDS011;50345;51.136;16.886;2023-02-15T10:34:51;29.07;;;26.00;;
6955;SDS011;50345;51.136;16.886;2023-02-15T10:40:44;27.77;;;25.00;;
6955;SDS011;50345;51.136;16.886;2023-02-15T10:54:24;27.83;;;24.87;;
6955;SDS011;50345;51.136;16.886;2023-02-15T10:57:02;27.70;;;24.77;;
6955;SDS011;50345;51.136;16.886;2023-02-15T11:07:50;26.90;;;24.03;;
6955;SDS011;50345;51.136;16.886;2023-02-15T11:12:47;26.97;;;24.37;;
6955;SDS011;50345;51.136;16.886;2023-02-15T11:18:05;25.30;;;22.77;;
6955;SDS011;50345;51.136;16.886;2023-02-15T11:20:50;27.50;;;24.70;;
6955;SDS011;50345;51.136;16.886;2023-02-15T11:23:20;25.13;;;22.40;;
6955;SDS011;50345;51.136;16.886;2023-02-15T11:25:51;25.80;;;23.40;;
6955;SDS011;50345;51.136;16.886;2023-02-15T11:28:33;28.57;;;25.77;;
6955;SDS011;50345;51.136;16.886;2023-02-15T11:31:23;29.00;;;25.87;;
6955;SDS011;50345;51.136;16.886;2023-02-15T11:33:55;29.03;;;26.00;;
6955;SDS011;50345;51.136;16.886;2023-02-15T11:36:25;27.80;;;25.10;;
6955;SDS011;50345;51.136;16.886;2023-02-15T11:38:58;27.70;;;25.00;;
6955;SDS011;50345;51.136;16.886;2023-02-15T11:41:34;28.97;;;25.70;;
6955;SDS011;50345;51.136;16.886;2023-02-15T11:44:11;28.67;;;25.87;;
6955;SDS011;50345;51.136;16.886;2023-02-15T11:46:42;26.87;;;24.17;;
6955;SDS011;50345;51.136;16.886;2023-02-15T11:49:30;26.80;;;23.90;;
6955;SDS011;50345;51.136;16.886;2023-02-15T11:51:59;26.33;;;23.70;;
6955;SDS011;50345;51.136;16.886;2023-02-15T11:54:29;28.60;;;25.57;;
6955;SDS011;50345;51.136;16.886;2023-02-15T11:56:59;30.33;;;27.23;;
6955;SDS011;50345;51.136;16.886;2023-02-15T12:00:01;28.37;;;25.37;;
6955;SDS011;50345;51.136;16.886;2023-02-15T12:02:35;28.70;;;26.00;;
6955;SDS011;50345;51.136;16.886;2023-02-15T12:05:05;30.20;;;27.07;;
6955;SDS011;50345;51.136;16.886;2023-02-15T12:07:37;30.73;;;27.30;;
6955;SDS011;50345;51.136;16.886;2023-02-15T12:10:31;29.23;;;26.33;;
6955;SDS011;50345;51.136;16.886;2023-02-15T12:13:14;31.73;;;28.27;;
6955;SDS011;50345;51.136;16.886;2023-02-15T12:15:42;32.40;;;29.10;;
6955;SDS011;50345;51.136;16.886;2023-02-15T12:20:46;34.57;;;28.80;;
6955;SDS011;50345;51.136;16.886;2023-02-15T12:23:12;32.93;;;29.73;;
6955;SDS011;50345;51.136;16.886;2023-02-15T12:25:48;29.60;;;26.57;;
6955;SDS011;50345;51.136;16.886;2023-02-15T12:28:21;29.57;;;26.77;;
6955;SDS011;50345;51.136;16.886;2023-02-15T12:30:47;32.50;;;29.10;;
6955;SDS011;50345;51.136;16.886;2023-02-15T12:33:18;30.60;;;27.40;;
6955;SDS011;50345;51.136;16.886;2023-02-15T12:35:59;30.07;;;26.87;;
6955;SDS011;50345;51.136;16.886;2023-02-15T12:38:34;31.50;;;28.20;;
6955;SDS011;50345;51.136;16.886;2023-02-15T12:41:04;31.33;;;28.17;;
6955;SDS011;50345;51.136;16.886;2023-02-15T12:47:03;27.03;;;24.37;;
6955;SDS011;50345;51.136;16.886;2023-02-15T12:52:48;27.77;;;24.97;;
6955;SDS011;50345;51.136;16.886;2023-02-15T12:55:20;26.63;;;24.20;;
6955;SDS011;50345;51.136;16.886;2023-02-15T13:00:43;30.93;;;28.00;;
6955;SDS011;50345;51.136;16.886;2023-02-15T13:03:19;26.67;;;24.20;;
6955;SDS011;50345;51.136;16.886;2023-02-15T13:05:47;26.77;;;24.07;;
6955;SDS011;50345;51.136;16.886;2023-02-15T13:08:22;29.10;;;26.23;;
6955;SDS011;50345;51.136;16.886;2023-02-15T13:10:56;27.47;;;24.70;;
6955;SDS011;50345;51.136;16.886;2023-02-15T13:13:24;30.50;;;27.33;;
6955;SDS011;50345;51.136;16.886;2023-02-15T13:15:52;25.50;;;22.97;;
6955;SDS011;50345;51.136;16.886;2023-02-15T13:18:29;28.97;;;26.03;;
6955;SDS011;50345;51.136;16.886;2023-02-15T13:21:04;27.53;;;24.83;;
6955;SDS011;50345;51.136;16.886;2023-02-15T13:23:56;26.20;;;23.60;;
6955;SDS011;50345;51.136;16.886;2023-02-15T13:26:26;26.90;;;24.33;;
6955;SDS011;50345;51.136;16.886;2023-02-15T13:28:56;28.43;;;25.40;;
6955;SDS011;50345;51.136;16.886;2023-02-15T13:31:26;28.20;;;24.23;;
6955;SDS011;50345;51.136;16.886;2023-02-15T13:34:03;26.27;;;23.60;;
6955;SDS011;50345;51.136;16.886;2023-02-15T13:39:24;27.30;;;24.60;;
6955;SDS011;50345;51.136;16.886;2023-02-15T13:42:00;26.57;;;23.77;;
6955;SDS011;50345;51.136;16.886;2023-02-15T13:50:42;27.77;;;24.87;;
6955;SDS011;50345;51.136;16.886;2023-02-15T13:56:28;28.37;;;25.57;;
6955;SDS011;50345;51.136;16.886;2023-02-15T14:10:02;29.10;;;25.43;;
6955;SDS011;50345;51.136;16.886;2023-02-15T14:15:14;27.63;;;24.70;;
6955;SDS011;50345;51.136;16.886;2023-02-15T14:31:54;29.13;;;25.30;;
6955;SDS011;50345;51.136;16.886;2023-02-15T14:36:54;28.70;;;25.70;;
6955;SDS011;50345;51.136;16.886;2023-02-15T14:42:30;30.83;;;27.20;;
6955;SDS011;50345;51.136;16.886;2023-02-15T14:45:13;29.53;;;26.23;;
6955;SDS011;50345;51.136;16.886;2023-02-15T14:47:42;31.77;;;28.30;;
6955;SDS011;50345;51.136;16.886;2023-02-15T14:53:22;31.80;;;26.23;;
6955;SDS011;50345;51.136;16.886;2023-02-15T14:56:04;30.52;;;26.40;;
6955;SDS011;50345;51.136;16.886;2023-02-15T14:58:41;30.38;;;25.65;;
6955;SDS011;50345;51.136;16.886;2023-02-15T15:01:40;38.53;;;28.15;;
6955;SDS011;50345;51.136;16.886;2023-02-15T15:04:07;32.10;;;26.08;;
6955;SDS011;50345;51.136;16.886;2023-02-15T15:06:37;29.52;;;24.27;;
6955;SDS011;50345;51.136;16.886;2023-02-15T15:09:22;32.42;;;26.25;;
6955;SDS011;50345;51.136;16.886;2023-02-15T15:11:52;32.65;;;26.77;;
6955;SDS011;50345;51.136;16.886;2023-02-15T15:16:57;29.75;;;25.02;;
6955;SDS011;50345;51.136;16.886;2023-02-15T15:22:16;36.45;;;26.50;;
6955;SDS011;50345;51.136;16.886;2023-02-15T15:32:39;33.20;;;25.17;;
6955;SDS011;50345;51.136;16.886;2023-02-15T15:35:23;29.15;;;23.75;;
6955;SDS011;50345;51.136;16.886;2023-02-15T15:38:22;33.70;;;24.65;;
6955;SDS011;50345;51.136;16.886;2023-02-15T15:49:16;32.50;;;25.17;;
6955;SDS011;50345;51.136;16.886;2023-02-15T15:51:44;31.48;;;24.05;;
6955;SDS011;50345;51.136;16.886;2023-02-15T15:54:13;35.33;;;26.70;;
6955;SDS011;50345;51.136;16.886;2023-02-15T15:56:52;30.92;;;24.90;;
6955;SDS011;50345;51.136;16.886;2023-02-15T15:59:28;32.10;;;23.10;;
6955;SDS011;50345;51.136;16.886;2023-02-15T16:01:55;34.47;;;23.48;;
6955;SDS011;50345;51.136;16.886;2023-02-15T16:04:29;34.65;;;23.15;;
6955;SDS011;50345;51.136;16.886;2023-02-15T16:12:21;44.47;;;29.90;;
6955;SDS011;50345;51.136;16.886;2023-02-15T16:14:48;44.70;;;33.78;;
6955;SDS011;50345;51.136;16.886;2023-02-15T16:17:23;65.05;;;45.22;;
6955;SDS011;50345;51.136;16.886;2023-02-15T16:19:50;62.80;;;46.55;;
6955;SDS011;50345;51.136;16.886;2023-02-15T16:22:21;59.85;;;48.10;;
6955;SDS011;50345;51.136;16.886;2023-02-15T16:28:07;61.58;;;44.63;;
6955;SDS011;50345;51.136;16.886;2023-02-15T16:30:37;56.90;;;42.45;;
6955;SDS011;50345;51.136;16.886;2023-02-15T16:33:11;55.90;;;40.08;;
6955;SDS011;50345;51.136;16.886;2023-02-15T16:35:40;53.65;;;41.60;;
6955;SDS011;50345;51.136;16.886;2023-02-15T16:38:17;43.15;;;32.17;;
6955;SDS011;50345;51.136;16.886;2023-02-15T16:40:52;43.15;;;32.13;;
6955;SDS011;50345;51.136;16.886;2023-02-15T16:43:24;41.95;;;30.80;;
6955;SDS011;50345;51.136;16.886;2023-02-15T16:45:51;43.03;;;32.40;;
6955;SDS011;50345;51.136;16.886;2023-02-15T16:48:23;49.97;;;35.08;;
6955;SDS011;50345;51.136;16.886;2023-02-15T16:50:52;45.70;;;34.38;;
6955;SDS011;50345;51.136;16.886;2023-02-15T16:53:21;52.60;;;38.08;;
6955;SDS011;50345;51.136;16.886;2023-02-15T16:55:58;45.40;;;32.67;;
6955;SDS011;50345;51.136;16.886;2023-02-15T16:58:30;48.20;;;36.38;;
6955;SDS011;50345;51.136;16.886;2023-02-15T17:01:02;57.92;;;37.47;;
6955;SDS011;50345;51.136;16.886;2023-02-15T17:03:31;52.00;;;37.70;;
6955;SDS011;50345;51.136;16.886;2023-02-15T17:06:00;55.23;;;38.80;;
6955;SDS011;50345;51.136;16.886;2023-02-15T17:08:34;63.20;;;40.80;;
6955;SDS011;50345;51.136;16.886;2023-02-15T17:11:15;62.10;;;38.25;;
6955;SDS011;50345;51.136;16.886;2023-02-15T17:14:09;54.22;;;37.60;;
6955;SDS011;50345;51.136;16.886;2023-02-15T17:16:45;63.10;;;44.22;;
6955;SDS011;50345;51.136;16.886;2023-02-15T17:19:19;63.75;;;39.47;;
6955;SDS011;50345;51.136;16.886;2023-02-15T17:21:58;59.15;;;40.80;;
6955;SDS011;50345;51.136;16.886;2023-02-15T17:24:34;49.38;;;35.65;;
6955;SDS011;50345;51.136;16.886;2023-02-15T17:27:02;55.17;;;37.72;;
6955;SDS011;50345;51.136;16.886;2023-02-15T17:29:37;62.42;;;41.00;;
6955;SDS011;50345;51.136;16.886;2023-02-15T17:32:17;52.90;;;38.58;;
6955;SDS011;50345;51.136;16.886;2023-02-15T17:40:17;54.55;;;38.72;;
6955;SDS011;50345;51.136;16.886;2023-02-15T17:42:54;54.90;;;38.38;;
6955;SDS011;50345;51.136;16.886;2023-02-15T17:45:20;49.50;;;37.97;;
6955;SDS011;50345;51.136;16.886;2023-02-15T17:47:49;56.90;;;39.58;;